Time;durP1;ratioP1;P1;durP2;ratioP2;P2;SDS_P1;SDS_P2;PMS_P1;PMS_P2;Temp;Humidity;BMP_temperature;BMP_pressure;BME280_temperature;BME280_humidity;BME280_pressure;Samples;Min_cycle;Max_cycle;Signal;HPM_P1;HPM_P2
2022/07/08 00:01:07;;;;;;;17.77;2.35;;;;;;;18.56;65.22;99849.78;4907656;29;20546;-73
2022/07/08 00:03:33;;;;;;;8.60;2.10;;;;;;;18.53;65.34;99844.91;4909980;29;20052;-74
2022/07/08 00:06:01;;;;;;;8.38;2.08;;;;;;;18.52;65.49;99852.38;4910139;29;20139;-73
2022/07/08 00:08:28;;;;;;;7.32;2.10;;;;;;;18.46;65.41;99856.47;4909298;29;20144;-73
2022/07/08 00:10:54;;;;;;;7.90;2.13;;;;;;;18.43;65.56;99846.84;4909989;29;20075;-73
2022/07/08 00:13:20;;;;;;;7.63;2.10;;;;;;;18.41;65.61;99846.38;4911137;29;20508;-73
2022/07/08 00:15:47;;;;;;;12.23;2.28;;;;;;;18.44;65.73;99847.69;4910473;29;20059;-72
2022/07/08 00:18:13;;;;;;;15.18;2.10;;;;;;;18.46;65.61;99845.38;4892543;29;20091;-73
2022/07/08 00:20:39;;;;;;;6.53;2.00;;;;;;;18.41;65.20;99848.31;4910332;29;20071;-73
2022/07/08 00:23:06;;;;;;;12.65;2.05;;;;;;;18.39;65.58;99856.13;4910420;29;20107;-73
2022/07/08 00:25:32;;;;;;;9.27;2.28;;;;;;;18.40;65.62;99858.59;4910736;29;20151;-73
2022/07/08 00:27:58;;;;;;;12.40;3.03;;;;;;;18.41;65.44;99851.06;4910299;29;20067;-74
2022/07/08 00:30:24;;;;;;;14.32;2.13;;;;;;;18.40;65.53;99841.16;4908353;29;20059;-74
2022/07/08 00:32:50;;;;;;;6.47;1.98;;;;;;;18.39;65.37;99848.66;4910510;29;20107;-73
2022/07/08 00:35:16;;;;;;;10.82;2.00;;;;;;;18.38;65.89;99841.50;4890775;29;20048;-73
2022/07/08 00:37:42;;;;;;;11.80;2.38;;;;;;;18.35;65.69;99835.78;4908731;29;20056;-73
2022/07/08 00:40:11;;;;;;;7.00;2.15;;;;;;;18.31;65.73;99837.59;4911005;29;20516;-73
2022/07/08 00:42:38;;;;;;;6.22;2.15;;;;;;;18.28;65.60;99839.88;4909817;29;20151;-73
2022/07/08 00:45:05;;;;;;;10.43;1.88;;;;;;;18.24;65.23;99844.41;4911474;29;20460;-73
2022/07/08 00:47:31;;;;;;;7.55;2.03;;;;;;;18.24;65.80;99838.06;4909659;29;20171;-74
2022/07/08 00:49:57;;;;;;;6.03;1.90;;;;;;;18.22;65.86;99840.34;4907866;29;20054;-73
2022/07/08 00:52:24;;;;;;;9.93;1.90;;;;;;;18.17;66.25;99841.31;4907656;29;20837;-73
2022/07/08 00:54:50;;;;;;;7.13;1.83;;;;;;;18.11;66.33;99840.66;4923431;29;20107;-73
2022/07/08 00:57:18;;;;;;;12.00;1.83;;;;;;;18.05;66.12;99838.38;4909171;29;20398;-73
2022/07/08 00:59:44;;;;;;;5.40;1.90;;;;;;;18.04;65.68;99842.28;4921908;29;20409;-73
2022/07/08 01:02:10;;;;;;;6.00;1.60;;;;;;;18.00;65.90;99848.44;4908523;29;20075;-73
2022/07/08 01:04:36;;;;;;;6.47;1.75;;;;;;;17.98;66.27;99847.13;4908314;29;20487;-72
2022/07/08 01:07:03;;;;;;;3.67;1.60;;;;;;;17.97;65.86;99840.81;4909241;29;20082;-73
2022/07/08 01:09:29;;;;;;;4.28;1.80;;;;;;;17.96;66.12;99841.94;4910857;29;20143;-73
2022/07/08 01:11:55;;;;;;;10.45;2.13;;;;;;;17.92;65.96;99838.19;4907690;29;20052;-73
2022/07/08 01:14:23;;;;;;;7.32;1.77;;;;;;;17.88;65.98;99844.69;4908113;29;20063;-73
2022/07/08 01:16:50;;;;;;;7.82;1.70;;;;;;;17.85;66.17;99848.91;4910038;29;20056;-72
2022/07/08 01:19:16;;;;;;;4.78;1.70;;;;;;;17.83;66.52;99852.00;4909127;29;20118;-74
2022/07/08 01:21:44;;;;;;;5.25;1.80;;;;;;;17.83;66.09;99851.19;4907810;29;20403;-72
2022/07/08 01:24:10;;;;;;;5.43;1.80;;;;;;;17.83;66.30;99849.22;4907525;29;20052;-74
2022/07/08 01:26:36;;;;;;;5.05;1.65;;;;;;;17.82;66.45;99853.13;4908876;29;20071;-73
2022/07/08 01:29:02;;;;;;;4.82;1.60;;;;;;;17.83;66.48;99852.00;4906646;29;20076;-73
2022/07/08 01:31:28;;;;;;;6.85;1.80;;;;;;;17.85;66.39;99858.00;4907428;29;20051;-73
2022/07/08 01:33:55;;;;;;;7.65;1.70;;;;;;;17.85;66.42;99860.78;4906715;29;20048;-73
2022/07/08 01:36:21;;;;;;;6.82;1.70;;;;;;;17.84;66.56;99866.66;4907286;29;20056;-73
2022/07/08 01:38:48;;;;;;;10.05;1.70;;;;;;;17.83;66.86;99865.03;4892506;29;20052;-73
2022/07/08 01:41:14;;;;;;;6.72;1.95;;;;;;;17.80;66.90;99872.00;4907549;29;20185;-73
2022/07/08 01:43:40;;;;;;;4.90;1.80;;;;;;;17.76;66.95;99864.66;4907836;29;20056;-74
2022/07/08 01:46:06;;;;;;;7.40;2.15;;;;;;;17.72;66.57;99868.06;4907352;29;20060;-74
2022/07/08 01:48:32;;;;;;;6.63;1.70;;;;;;;17.71;66.60;99880.28;4906484;29;20090;-73
2022/07/08 01:50:59;;;;;;;9.00;2.00;;;;;;;17.69;66.45;99874.25;4908350;29;20083;-72
2022/07/08 01:53:26;;;;;;;7.03;1.70;;;;;;;17.70;66.40;99878.66;4907127;29;20046;-73
2022/07/08 01:55:53;;;;;;;7.22;2.00;;;;;;;17.72;66.77;99883.88;4907498;29;20056;-73
2022/07/08 01:58:19;;;;;;;6.25;1.95;;;;;;;17.75;66.96;99887.91;4906782;29;20058;-74
2022/07/08 02:00:45;;;;;;;8.65;2.40;;;;;;;17.80;66.61;99885.81;4906850;29;20044;-73
2022/07/08 02:03:12;;;;;;;8.45;2.03;;;;;;;17.83;66.64;99881.63;4909467;29;20136;-73
2022/07/08 02:05:38;;;;;;;7.25;2.33;;;;;;;17.81;66.20;99883.88;4908638;29;20052;-73
2022/07/08 02:08:04;;;;;;;14.50;2.10;;;;;;;17.82;66.38;99875.25;4907578;29;20055;-73
2022/07/08 02:12:18;;;;;;;7.72;1.73;;;;;;;17.83;66.61;99874.13;4909237;29;20044;-73
2022/07/08 02:13:18;;;;;;;10.65;2.10;;;;;;;17.83;66.57;99876.88;4908665;29;20055;-73
2022/07/08 02:16:05;;;;;;;5.93;1.90;;;;;;;17.83;66.53;99878.84;4895701;29;20059;-74
2022/07/08 02:18:31;;;;;;;10.02;2.10;;;;;;;17.83;66.68;99878.84;4907588;29;20059;-73
2022/07/08 02:20:57;;;;;;;8.15;2.10;;;;;;;17.81;66.35;99881.91;4908908;29;20052;-72
2022/07/08 02:23:23;;;;;;;10.52;2.45;;;;;;;17.77;66.96;99875.41;4892535;29;20094;-74
2022/07/08 02:25:49;;;;;;;7.15;1.90;;;;;;;17.73;66.86;99871.66;4907918;29;20071;-73
2022/07/08 02:28:15;;;;;;;13.48;1.80;;;;;;;17.75;67.24;99885.16;4906455;29;20094;-73
2022/07/08 02:30:42;;;;;;;5.70;1.73;;;;;;;17.80;67.02;99885.03;4908980;29;20051;-74
2022/07/08 02:33:08;;;;;;;7.75;2.50;;;;;;;17.83;66.92;99884.38;4906797;29;20076;-74
2022/07/08 02:35:34;;;;;;;10.85;2.78;;;;;;;17.85;67.08;99899.50;4906221;29;20052;-74
2022/07/08 02:38:01;;;;;;;10.00;2.03;;;;;;;17.90;67.00;99898.53;4905870;29;20048;-74
2022/07/08 02:40:27;;;;;;;8.50;2.72;;;;;;;17.97;67.08;99896.13;4907282;29;20078;-74
2022/07/08 02:42:53;;;;;;;7.65;2.55;;;;;;;18.04;66.91;99894.84;4907609;29;20542;-74
2022/07/08 02:45:19;;;;;;;8.77;2.65;;;;;;;18.10;66.47;99901.84;4906430;29;20047;-73
2022/07/08 02:47:46;;;;;;;7.15;2.35;;;;;;;18.09;66.56;99900.22;4906666;29;20055;-73
2022/07/08 02:50:12;;;;;;;5.05;2.33;;;;;;;18.15;66.59;99904.47;4905657;29;20060;-73
2022/07/08 02:52:38;;;;;;;7.68;2.60;;;;;;;18.20;66.13;99903.50;4906072;29;20115;-73
2022/07/08 02:55:05;;;;;;;9.90;2.75;;;;;;;18.19;66.37;99908.22;4907534;29;20052;-73
2022/07/08 02:57:31;;;;;;;12.73;2.90;;;;;;;18.19;66.54;99918.47;4905869;29;20185;-74
2022/07/08 02:59:57;;;;;;;12.20;2.35;;;;;;;18.16;66.39;99922.72;4904919;29;20492;-74
2022/07/08 03:02:23;;;;;;;9.05;2.42;;;;;;;18.15;66.71;99918.31;4907178;29;20051;-73
2022/07/08 03:04:53;;;;;;;5.63;2.10;;;;;;;18.17;66.35;99920.72;4906295;29;20159;-73
2022/07/08 03:07:20;;;;;;;6.82;2.20;;;;;;;18.16;65.83;99930.19;4909374;29;20064;-73
2022/07/08 03:09:46;;;;;;;6.75;2.60;;;;;;;18.13;65.66;99929.69;4909610;29;20056;-73
2022/07/08 03:12:12;;;;;;;11.05;2.33;;;;;;;18.19;65.69;99930.34;4909425;29;20203;-73
2022/07/08 03:14:38;;;;;;;10.57;2.00;;;;;;;18.21;65.95;99935.56;4910779;29;20147;-73
2022/07/08 03:17:04;;;;;;;12.95;4.57;;;;;;;18.27;65.60;99937.88;4909885;29;20079;-73
2022/07/08 03:19:30;;;;;;;16.95;4.68;;;;;;;18.33;65.40;99943.22;4910908;29;20044;-73
2022/07/08 03:21:57;;;;;;;8.70;2.60;;;;;;;18.43;64.90;99943.72;4927148;29;20052;-74
2022/07/08 03:24:23;;;;;;;;;;;;;;;18.55;64.93;99943.06;4909886;29;20055;-73
2022/07/08 03:26:50;;;;;;;10.77;3.83;;;;;;;18.67;64.31;99949.91;4911373;29;20017;-73
2022/07/08 03:29:16;;;;;;;15.38;3.28;;;;;;;18.71;64.16;99945.34;4911977;29;20067;-73
2022/07/08 03:31:42;;;;;;;9.70;2.20;;;;;;;18.76;63.64;99950.75;4909661;29;20060;-73
2022/07/08 03:34:08;;;;;;;8.15;2.60;;;;;;;18.81;63.26;99952.50;4909818;29;20527;-73
2022/07/08 03:36:34;;;;;;;14.80;2.90;;;;;;;18.93;63.14;99955.44;4909466;29;20531;-73
2022/07/08 03:39:01;;;;;;;15.88;3.03;;;;;;;19.01;62.88;99959.38;4910512;29;20640;-73
2022/07/08 03:41:27;;;;;;;10.68;2.65;;;;;;;19.14;62.92;99965.88;4907458;29;20052;-73
2022/07/08 03:43:53;;;;;;;13.82;2.70;;;;;;;19.22;62.28;99959.50;4911527;29;20052;-73
2022/07/08 03:46:20;;;;;;;12.57;2.90;;;;;;;19.22;62.43;99965.03;4910085;29;20047;-72
2022/07/08 03:48:47;;;;;;;20.45;2.78;;;;;;;19.19;62.26;99962.09;4911856;29;20056;-73
2022/07/08 03:51:14;;;;;;;11.90;2.70;;;;;;;19.16;62.38;99965.53;4910098;29;20127;-73
2022/07/08 03:53:40;;;;;;;11.80;2.53;;;;;;;19.10;62.20;99974.03;4912179;29;20104;-73
2022/07/08 03:56:08;;;;;;;8.33;2.70;;;;;;;19.07;62.53;99971.09;4924967;29;20429;-74
2022/07/08 03:58:35;;;;;;;14.57;3.80;;;;;;;19.09;62.56;99964.09;4908444;29;20058;-75
2022/07/08 04:01:01;;;;;;;18.98;5.32;;;;;;;19.14;61.95;99979.75;4907805;29;20067;-74
2022/07/08 04:03:27;;;;;;;17.40;6.60;;;;;;;19.23;62.16;99971.41;4911054;29;20455;-73
2022/07/08 04:05:53;;;;;;;10.35;2.88;;;;;;;19.28;61.90;99968.47;4907129;29;21258;-73
2022/07/08 04:08:19;;;;;;;12.23;3.22;;;;;;;19.35;61.83;99965.97;4909725;29;20112;-74
2022/07/08 04:10:45;;;;;;;13.18;3.35;;;;;;;19.42;61.67;99966.31;4911624;29;20056;-73
2022/07/08 04:13:13;;;;;;;8.35;2.08;;;;;;;19.47;61.35;99959.78;4923851;29;20143;-73
2022/07/08 04:15:39;;;;;;;13.30;2.95;;;;;;;19.51;60.81;99966.28;4910479;29;20052;-73
2022/07/08 04:18:05;;;;;;;8.07;2.80;;;;;;;19.61;60.54;99969.84;4912440;29;20265;-72
2022/07/08 04:20:31;;;;;;;6.32;2.40;;;;;;;19.72;59.98;99973.84;4907589;29;20600;-72
2022/07/08 04:22:57;;;;;;;8.43;2.20;;;;;;;19.76;59.83;99974.00;4912336;29;20156;-73
2022/07/08 04:25:23;;;;;;;13.73;3.55;;;;;;;19.76;60.16;99980.38;4908010;29;20052;-73
2022/07/08 04:27:49;;;;;;;7.47;2.47;;;;;;;19.77;60.19;99968.13;4907947;29;20063;-73
2022/07/08 04:30:16;;;;;;;10.65;2.63;;;;;;;19.81;60.06;99977.41;4906458;29;20048;-73
2022/07/08 04:32:42;;;;;;;10.85;2.90;;;;;;;19.91;59.82;99976.22;4908677;29;20473;-73
2022/07/08 04:35:09;;;;;;;13.65;2.67;;;;;;;20.00;59.56;99975.41;4907193;29;20147;-73
2022/07/08 04:37:35;;;;;;;17.40;3.65;;;;;;;20.12;59.37;99976.31;4910186;29;20495;-73
2022/07/08 04:40:01;;;;;;;13.53;2.47;;;;;;;20.16;58.98;99972.84;4892048;29;20052;-73
2022/07/08 04:42:29;;;;;;;14.93;3.00;;;;;;;20.19;58.56;99972.19;4909458;29;20312;-73
2022/07/08 04:44:55;;;;;;;14.07;4.38;;;;;;;20.34;58.64;99965.25;4909029;29;20443;-71
2022/07/08 04:47:23;;;;;;;8.80;2.88;;;;;;;20.56;57.65;99983.53;4910700;29;20052;-72
2022/07/08 04:49:49;;;;;;;14.48;3.13;;;;;;;20.72;57.11;99969.84;4911372;29;20116;-72
2022/07/08 04:52:15;;;;;;;11.68;2.55;;;;;;;20.90;56.79;99980.84;4907152;29;20481;-73
2022/07/08 04:54:41;;;;;;;10.03;2.83;;;;;;;20.91;56.52;99977.72;4910695;29;20139;-73
2022/07/08 04:57:08;;;;;;;9.20;2.80;;;;;;;20.73;56.35;99970.66;4909268;29;20308;-72
2022/07/08 04:59:34;;;;;;;10.10;2.42;;;;;;;20.37;56.94;99968.16;4907348;29;20487;-72
2022/07/08 05:02:00;;;;;;;12.50;3.38;;;;;;;20.04;58.09;99976.38;4908058;29;20245;-73
2022/07/08 05:04:28;;;;;;;13.60;3.35;;;;;;;19.81;58.04;99976.59;4911422;29;20515;-74
2022/07/08 05:06:54;;;;;;;5.63;1.95;;;;;;;19.81;58.04;99980.19;4906162;29;20123;-72
2022/07/08 05:09:20;;;;;;;6.38;1.90;;;;;;;20.04;57.58;99984.69;4888513;29;20048;-73
2022/07/08 05:11:46;;;;;;;7.78;2.70;;;;;;;20.14;57.29;99966.84;4892923;29;20404;-72
2022/07/08 05:14:15;;;;;;;11.20;1.90;;;;;;;20.24;56.91;99963.69;4893229;29;20075;-74
2022/07/08 05:16:42;;;;;;;7.03;2.00;;;;;;;20.36;56.39;99966.50;4897730;29;20059;-74
2022/07/08 05:19:09;;;;;;;7.55;2.00;;;;;;;20.53;55.90;99975.91;4875466;29;20150;-73
2022/07/08 05:21:37;;;;;;;10.38;2.45;;;;;;;20.76;55.32;99972.75;4908478;29;20044;-73
2022/07/08 05:24:04;;;;;;;6.07;2.20;;;;;;;21.02;54.23;99968.97;4910961;29;20044;-73
2022/07/08 05:26:30;;;;;;;;;;;;;;;21.11;53.94;99969.69;4910707;29;20639;-73
2022/07/08 05:28:56;;;;;;;9.23;2.10;;;;;;;21.03;54.62;99965.84;4916599;29;19927;-74
2022/07/08 05:31:22;;;;;;;11.15;2.30;;;;;;;20.95;55.12;99963.97;4906561;29;20252;-73
2022/07/08 05:33:48;;;;;;;9.77;2.05;;;;;;;21.06;54.82;99969.91;4907488;29;20170;-72
2022/07/08 05:36:14;;;;;;;11.82;2.38;;;;;;;21.20;53.88;99966.81;4920649;29;20478;-72
2022/07/08 05:38:42;;;;;;;18.08;6.13;;;;;;;21.14;54.05;99969.00;4908052;29;20052;-73
2022/07/08 05:41:08;;;;;;;19.17;8.00;;;;;;;21.05;53.85;99973.84;4907318;29;20048;-72
2022/07/08 05:43:34;;;;;;;5.85;2.08;;;;;;;20.98;53.77;99974.41;4907051;29;20044;-73
2022/07/08 05:46:01;;;;;;;11.27;2.10;;;;;;;21.08;53.18;99975.94;4908358;29;20053;-72
2022/07/08 05:48:28;;;;;;;7.00;2.60;;;;;;;21.09;52.61;99981.16;4908543;29;20052;-73
2022/07/08 05:50:54;;;;;;;;;;;;;;;21.07;52.84;99986.25;4906207;29;20509;-72
2022/07/08 05:53:20;;;;;;;8.32;2.40;;;;;;;21.09;52.62;99980.34;4907692;29;20293;-71
2022/07/08 05:55:48;;;;;;;13.80;2.65;;;;;;;21.09;52.76;99977.56;4904837;29;20052;-73
2022/07/08 05:58:14;;;;;;;12.77;3.60;;;;;;;21.09;53.04;99992.28;4907978;29;20524;-73
2022/07/08 06:00:40;;;;;;;8.87;2.60;;;;;;;21.00;53.43;99996.31;4891183;29;20516;-73
2022/07/08 06:03:07;;;;;;;13.00;2.90;;;;;;;20.87;53.67;99998.19;4892849;29;20471;-73
2022/07/08 06:05:33;;;;;;;9.40;2.60;;;;;;;20.86;53.74;99991.84;4908962;29;20051;-69
2022/07/08 06:07:59;;;;;;;11.50;2.80;;;;;;;21.16;52.92;99994.50;4908656;29;20088;-69
2022/07/08 06:10:26;;;;;;;15.57;2.92;;;;;;;21.45;52.09;99989.13;4907170;29;20119;-67
2022/07/08 06:12:53;;;;;;;6.70;2.30;;;;;;;21.63;51.70;99968.31;4919729;29;20071;-70
2022/07/08 06:15:20;;;;;;;11.40;2.75;;;;;;;21.66;51.85;99987.09;4907493;29;20048;-69
2022/07/08 06:17:46;;;;;;;8.88;2.20;;;;;;;21.56;52.01;99997.84;4906533;29;20052;-69
2022/07/08 06:20:14;;;;;;;11.20;2.30;;;;;;;21.39;52.46;99994.09;4905270;29;20044;-70
2022/07/08 06:22:40;;;;;;;9.40;2.40;;;;;;;21.29;52.49;99994.53;4888495;29;20072;-70
2022/07/08 06:25:07;;;;;;;11.10;2.30;;;;;;;21.28;52.53;99990.13;4907003;29;20638;-70
2022/07/08 06:27:33;;;;;;;10.68;2.70;;;;;;;21.38;52.47;100007.19;4903046;29;20757;-70
2022/07/08 06:30:01;;;;;;;11.93;2.50;;;;;;;21.38;52.69;100001.63;4902331;29;20135;-69
2022/07/08 06:32:28;;;;;;;10.70;3.00;;;;;;;21.41;52.61;100004.91;4906915;29;20106;-69
2022/07/08 06:34:54;;;;;;;;;;;;;;;21.44;52.12;100009.75;4888911;29;20520;-70
2022/07/08 06:37:21;;;;;;;10.47;2.30;;;;;;;21.49;51.84;100003.97;4920057;29;19927;-69
2022/07/08 06:39:47;;;;;;;13.93;2.63;;;;;;;21.56;51.22;100009.78;4905467;29;20380;-70
2022/07/08 06:42:13;;;;;;;18.23;2.70;;;;;;;21.70;51.10;100012.28;4564428;28;10000359;-69
2022/07/08 06:44:42;;;;;;;8.05;2.40;;;;;;;21.76;50.75;100007.31;4903633;29;20044;-69
2022/07/08 06:47:11;;;;;;;7.43;2.00;;;;;;;21.74;50.81;100012.41;4900225;29;20048;-69
2022/07/08 06:49:37;;;;;;;7.93;2.25;;;;;;;21.65;50.93;99999.41;4909490;29;20068;-67
2022/07/08 06:52:04;;;;;;;12.15;2.45;;;;;;;21.50;51.62;100006.41;4911621;29;20036;-68
2022/07/08 06:54:37;;;;;;;7.10;2.45;;;;;;;21.42;51.72;100012.88;4906408;29;20048;-68
2022/07/08 06:57:05;;;;;;;7.93;2.28;;;;;;;21.43;51.92;100013.69;4909569;29;20059;-69
2022/07/08 06:59:31;;;;;;;13.23;2.03;;;;;;;21.48;51.32;100002.34;4907464;29;20073;-69
2022/07/08 07:01:57;;;;;;;11.65;2.55;;;;;;;21.73;50.75;100019.94;4906169;29;20057;-69
2022/07/08 07:04:24;;;;;;;20.30;7.28;;;;;;;21.90;50.48;100021.69;4910915;29;20040;-68
2022/07/08 07:06:50;;;;;;;8.40;2.10;;;;;;;22.09;50.04;100018.34;4908518;29;20100;-69
2022/07/08 07:09:18;;;;;;;11.82;2.50;;;;;;;22.26;49.23;100016.50;4910988;29;20076;-69
2022/07/08 07:11:44;;;;;;;8.90;2.53;;;;;;;22.31;49.05;100016.25;4922622;29;20139;-70
2022/07/08 07:14:11;;;;;;;11.68;2.40;;;;;;;22.57;48.44;100020.66;4907143;29;20040;-69
2022/07/08 07:16:37;;;;;;;7.25;2.20;;;;;;;22.95;47.39;100005.44;4906779;29;20056;-68
2022/07/08 07:19:03;;;;;;;16.35;3.58;;;;;;;23.41;46.35;100007.13;4922150;29;20048;-71
2022/07/08 07:21:30;;;;;;;8.02;2.40;;;;;;;23.61;45.74;100001.66;4908563;29;20048;-67
2022/07/08 07:23:56;;;;;;;5.65;2.28;;;;;;;23.70;45.24;100004.25;4909341;29;20132;-69
2022/07/08 07:26:22;;;;;;;11.73;2.10;;;;;;;23.77;45.18;100001.66;4907083;29;20115;-69
2022/07/08 07:28:49;;;;;;;7.50;2.50;;;;;;;23.60;45.22;100000.03;4907385;29;20132;-70
2022/07/08 07:31:15;;;;;;;17.33;3.40;;;;;;;23.18;46.27;100013.25;4910828;29;20139;-71
2022/07/08 07:33:41;;;;;;;10.15;2.60;;;;;;;22.77;46.93;100013.28;4912147;29;20048;-70
2022/07/08 07:36:07;;;;;;;12.38;2.60;;;;;;;22.43;48.07;100015.41;4921890;29;20048;-69
2022/07/08 07:38:35;;;;;;;10.88;2.97;;;;;;;22.19;49.25;100013.47;4905414;29;20052;-69
2022/07/08 07:41:01;;;;;;;10.00;2.45;;;;;;;22.25;48.68;100023.22;4909139;29;20048;-69
2022/07/08 07:43:27;;;;;;;12.90;3.05;;;;;;;22.83;47.49;100018.63;4908523;29;20052;-69
2022/07/08 07:45:54;;;;;;;7.78;2.50;;;;;;;23.57;45.62;100009.94;4902032;29;20054;-69
2022/07/08 07:48:20;;;;;;;8.82;2.40;;;;;;;23.78;44.96;100020.03;4906836;29;20051;-69
2022/07/08 07:50:46;;;;;;;10.80;2.50;;;;;;;23.56;45.16;100022.25;4919242;29;20528;-70
2022/07/08 07:53:12;;;;;;;8.80;2.75;;;;;;;23.21;45.94;100017.28;4921113;29;20492;-70
2022/07/08 07:55:39;;;;;;;14.80;2.80;;;;;;;22.82;46.40;100019.78;4910142;29;20405;-69
2022/07/08 07:58:05;;;;;;;15.80;2.88;;;;;;;22.80;46.85;100012.59;4908598;29;20055;-70
2022/07/08 08:00:31;;;;;;;12.80;2.70;;;;;;;22.73;47.23;100012.34;4906397;29;20048;-70
2022/07/08 08:02:57;;;;;;;12.40;2.40;;;;;;;22.60;48.07;100013.56;4907841;29;20048;-69
2022/07/08 08:05:24;;;;;;;9.60;2.70;;;;;;;22.77;48.02;100013.28;4903015;29;20613;-69
2022/07/08 08:07:50;;;;;;;14.30;2.50;;;;;;;23.51;46.05;100026.13;4906811;29;20539;-69
2022/07/08 08:10:16;;;;;;;10.15;2.25;;;;;;;24.24;44.88;100010.41;4919472;29;20468;-70
2022/07/08 08:12:43;;;;;;;15.48;2.45;;;;;;;25.17;42.81;100014.41;4905938;29;20112;-70
2022/07/08 08:15:10;;;;;;;12.10;2.50;;;;;;;25.78;40.63;100019.56;4907205;29;20063;-69
2022/07/08 08:17:36;;;;;;;9.20;2.63;;;;;;;26.21;39.20;100016.66;4907755;29;20411;-69
2022/07/08 08:20:04;;;;;;;9.85;2.38;;;;;;;26.11;39.53;100006.88;4907051;29;20311;-69
2022/07/08 08:22:30;;;;;;;12.70;2.50;;;;;;;26.28;39.62;100008.34;4905976;29;20048;-69
2022/07/08 08:24:56;;;;;;;12.93;3.05;;;;;;;26.50;39.50;100011.47;4910109;29;20059;-69
2022/07/08 08:27:22;;;;;;;16.60;2.50;;;;;;;26.36;38.89;100012.06;4908960;29;20052;-69
2022/07/08 08:29:49;;;;;;;13.43;2.63;;;;;;;25.88;39.94;100015.31;4906728;29;20649;-69
2022/07/08 08:32:15;;;;;;;11.48;2.90;;;;;;;25.45;40.75;100018.13;4909096;29;20152;-70
2022/07/08 08:34:41;;;;;;;14.75;2.85;;;;;;;25.67;40.15;100012.94;4907795;29;20056;-69
2022/07/08 08:37:08;;;;;;;9.15;2.63;;;;;;;25.82;40.17;100020.41;4907699;29;20432;-68
2022/07/08 08:39:34;;;;;;;13.13;2.95;;;;;;;25.78;39.98;100011.16;4910725;29;20584;-69
2022/07/08 08:42:01;;;;;;;20.42;2.90;;;;;;;25.69;40.24;100016.19;4907028;29;20052;-70
2022/07/08 08:44:27;;;;;;;;;;;;;;;25.46;40.87;100014.94;4907250;29;20054;-70
2022/07/08 08:46:56;;;;;;;13.38;3.40;;;;;;;25.15;41.22;100005.56;4907298;29;19949;-69
2022/07/08 08:49:22;;;;;;;14.57;3.30;;;;;;;25.51;40.55;100013.88;4921016;29;20516;-69
2022/07/08 08:51:50;;;;;;;12.35;2.70;;;;;;;26.38;39.49;100017.31;4905001;29;20392;-69
2022/07/08 08:54:17;;;;;;;11.82;2.40;;;;;;;27.39;36.75;100015.78;4907910;29;20078;-70
2022/07/08 08:56:46;;;;;;;7.05;2.35;;;;;;;28.09;36.00;100012.41;4919990;29;20071;-69
2022/07/08 08:59:14;;;;;;;10.05;2.50;;;;;;;28.25;35.06;100023.41;4908406;29;20044;-70
2022/07/08 09:01:41;;;;;;;9.85;2.45;;;;;;;28.23;35.14;100011.75;4906608;29;20059;-70
2022/07/08 09:04:10;;;;;;;9.27;2.40;;;;;;;28.39;34.87;100017.06;4907273;29;20044;-68
2022/07/08 09:06:36;;;;;;;20.95;3.10;;;;;;;27.75;35.69;100026.59;4917973;29;20053;-68
2022/07/08 09:09:03;;;;;;;12.18;3.17;;;;;;;26.84;37.54;100031.16;4902792;29;20055;-69
2022/07/08 09:11:30;;;;;;;12.70;2.95;;;;;;;26.15;38.99;100035.75;4900223;29;20063;-69
2022/07/08 09:14:16;;;;;;;16.48;3.00;;;;;;;26.14;38.96;100038.91;4909398;29;20048;-69
2022/07/08 09:17:06;;;;;;;11.50;2.70;;;;;;;26.28;39.15;100038.38;4903054;29;20047;-70
2022/07/08 09:19:34;;;;;;;12.23;2.47;;;;;;;27.00;37.72;100042.19;4904110;29;20052;-69
2022/07/08 09:22:00;;;;;;;9.82;2.50;;;;;;;28.07;35.77;100042.91;4903228;29;20052;-70
2022/07/08 09:24:27;;;;;;;12.20;2.65;;;;;;;28.31;35.41;100032.28;4905180;29;20056;-69
2022/07/08 09:26:54;;;;;;;9.18;2.53;;;;;;;29.35;33.07;100041.63;4905338;29;20072;-68
2022/07/08 09:29:20;;;;;;;;;;;;;;;30.30;31.67;100034.09;4907161;29;20082;-70
2022/07/08 09:31:46;;;;;;;10.45;2.40;;;;;;;30.66;30.98;100034.84;4906894;29;19931;-69
2022/07/08 09:34:16;;;;;;;12.73;2.53;;;;;;;30.77;30.05;100032.00;4908727;29;20424;-71
2022/07/08 09:36:48;;;;;;;8.75;2.35;;;;;;;30.11;31.35;100038.94;4906722;29;20406;-70
2022/07/08 09:39:31;;;;;;;12.68;3.22;;;;;;;29.39;32.62;100034.00;4907498;29;20103;-70
2022/07/08 09:41:57;;;;;;;9.20;2.60;;;;;;;28.75;33.05;100035.34;4902144;29;20040;-70
2022/07/08 09:44:23;;;;;;;8.18;2.60;;;;;;;29.00;33.02;100029.88;4900477;29;20055;-70
2022/07/08 09:46:50;;;;;;;9.27;2.90;;;;;;;29.15;32.63;100025.09;4916768;29;20071;-70
2022/07/08 09:49:29;;;;;;;8.10;2.47;;;;;;;28.97;32.38;100027.84;4905999;29;20567;-70
2022/07/08 09:51:57;;;;;;;19.65;3.10;;;;;;;28.43;33.22;100034.78;4907379;29;20395;-70
2022/07/08 09:54:24;;;;;;;11.00;3.15;;;;;;;29.13;31.97;100033.94;4907502;29;20063;-70
2022/07/08 09:56:58;;;;;;;16.95;3.35;;;;;;;29.78;31.12;100035.31;4907848;29;20095;-69
2022/07/08 09:59:24;;;;;;;12.63;3.63;;;;;;;30.55;29.79;100025.56;4909732;29;20067;-70
2022/07/08 10:01:51;;;;;;;9.05;2.78;;;;;;;30.80;29.41;100025.53;4907120;29;20488;-70
2022/07/08 10:04:18;;;;;;;13.57;2.80;;;;;;;31.15;29.18;100025.00;4921388;29;20637;-70
2022/07/08 10:06:44;;;;;;;4.95;2.20;;;;;;;31.16;28.82;100016.09;4907654;29;20059;-70
2022/07/08 10:09:14;;;;;;;9.30;2.90;;;;;;;30.19;30.40;100014.38;4909149;29;20066;-71
2022/07/08 10:11:41;;;;;;;8.68;2.70;;;;;;;30.42;30.17;100020.38;4905744;29;20052;-70
2022/07/08 10:14:08;;;;;;;8.35;2.90;;;;;;;30.75;29.48;100017.50;4901279;29;20054;-71
2022/07/08 10:16:37;;;;;;;8.30;2.90;;;;;;;31.30;28.73;100014.44;4903493;29;20470;-70
2022/07/08 10:19:08;;;;;;;11.30;3.10;;;;;;;31.92;27.13;100009.97;4905035;29;20051;-70
2022/07/08 10:21:36;;;;;;;9.05;2.75;;;;;;;32.60;27.08;100018.22;4905228;29;20048;-69
2022/07/08 10:24:07;;;;;;;8.70;2.92;;;;;;;33.00;26.64;100018.53;4902970;29;20044;-70
2022/07/08 10:26:36;;;;;;;8.68;2.97;;;;;;;33.30;25.85;100014.09;4906350;29;20056;-69
2022/07/08 10:29:05;;;;;;;7.63;2.63;;;;;;;33.86;25.35;100012.84;4904184;29;20166;-69
2022/07/08 10:31:41;;;;;;;9.00;3.08;;;;;;;34.25;24.57;100006.94;4917489;29;20052;-69
2022/07/08 10:34:08;;;;;;;12.00;2.70;;;;;;;33.81;24.85;100007.69;4566229;28;10000337;-69
2022/07/08 10:36:45;;;;;;;11.15;2.53;;;;;;;33.61;25.25;100016.91;4903667;29;20060;-70
2022/07/08 10:39:14;;;;;;;16.42;3.22;;;;;;;33.63;24.88;100007.97;4903419;29;20620;-70
2022/07/08 10:41:56;;;;;;;8.52;2.80;;;;;;;33.43;25.33;100010.69;4902317;29;20055;-68
2022/07/08 10:44:50;;;;;;;13.07;3.25;;;;;;;33.46;25.64;100005.00;4895687;29;20044;-68
2022/07/08 10:47:23;;;;;;;8.90;3.03;;;;;;;33.81;24.79;100013.34;4913385;29;20512;-71
2022/07/08 10:49:49;;;;;;;14.95;3.20;;;;;;;34.61;24.00;100003.44;4901874;29;20055;-70
2022/07/08 10:52:16;;;;;;;;;;;;;;;34.32;24.37;100007.59;4897947;29;20135;-70
2022/07/08 10:54:42;;;;;;;10.65;3.20;;;;;;;33.44;25.11;100000.97;4903131;29;19931;-71
2022/07/08 10:57:16;;;;;;;7.75;2.92;;;;;;;33.46;25.05;99990.84;4899231;29;20401;-70
2022/07/08 11:00:00;;;;;;;8.27;2.95;;;;;;;32.89;25.37;99995.22;4900444;29;20044;-70
2022/07/08 11:02:27;;;;;;;18.02;3.10;;;;;;;32.88;26.10;99997.25;4905230;29;20070;-71
2022/07/08 11:04:53;;;;;;;9.35;3.40;;;;;;;33.73;25.53;100000.53;4920232;29;20059;-70
2022/07/08 11:07:30;;;;;;;10.30;3.10;;;;;;;34.05;24.62;99996.34;4905950;29;20083;-70
2022/07/08 11:09:57;;;;;;;;;;;;;;;34.25;24.33;99995.59;4901793;29;20147;-70
2022/07/08 11:12:26;;;;;;;11.77;3.15;;;;;;;34.76;23.80;100001.09;4903076;29;19927;-69
2022/07/08 11:14:54;;;;;;;13.30;3.10;;;;;;;34.93;23.71;99987.78;4920573;29;20472;-70
2022/07/08 11:17:22;;;;;;;12.63;3.22;;;;;;;35.37;23.17;99992.50;4903869;29;20055;-71
2022/07/08 11:19:49;;;;;;;12.15;3.30;;;;;;;36.12;21.89;99994.75;4906447;29;20063;-70
2022/07/08 11:22:15;;;;;;;8.50;3.10;;;;;;;36.67;21.44;99996.88;4917724;29;20044;-69
2022/07/08 11:24:43;;;;;;;10.32;3.13;;;;;;;37.27;20.95;99986.97;4906557;29;20139;-70
2022/07/08 11:27:09;;;;;;;5.82;2.20;;;;;;;36.04;21.67;99989.22;4905148;29;20044;-69